createdAt,value
2022-10-29T00:02:16.613Z,37.40
2022-10-29T00:05:19.619Z,43.67
2022-10-29T00:08:22.093Z,42.75
2022-10-29T00:11:24.861Z,38.65
2022-10-29T00:14:27.345Z,44.22
2022-10-29T00:17:30.192Z,36.80
2022-10-29T00:20:32.674Z,39.20
2022-10-29T00:23:35.451Z,39.38
2022-10-29T00:26:37.907Z,38.75
2022-10-29T00:29:40.623Z,38.15
2022-10-29T00:32:43.208Z,37.10
2022-10-29T00:36:05.769Z,37.38
2022-10-29T00:39:13.335Z,33.30
2022-10-29T00:42:16.782Z,33.33
2022-10-29T00:45:21.147Z,34.95
2022-10-29T00:48:25.753Z,31.13
2022-10-29T00:51:30.649Z,31.05
2022-10-29T00:54:36.098Z,31.25
2022-10-29T00:57:47.164Z,34.65
2022-10-29T01:00:49.869Z,33.47
2022-10-29T01:03:52.876Z,36.27
2022-10-29T01:06:55.934Z,29.67
2022-10-29T01:09:58.571Z,34.80
2022-10-29T01:13:27.453Z,30.02
2022-10-29T01:16:44.229Z,34.78
2022-10-29T01:20:08.598Z,28.13
2022-10-29T01:23:33.236Z,35.40
2022-10-29T01:26:53.470Z,34.33
2022-10-29T01:30:21.537Z,33.30
2022-10-29T01:33:30.263Z,30.58
2022-10-29T01:36:40.765Z,32.23
2022-10-29T01:39:45.150Z,36.92
2022-10-29T01:42:53.933Z,33.20
2022-10-29T01:46:02.112Z,29.27
2022-10-29T01:49:17.814Z,34.70
2022-10-29T01:52:22.190Z,31.93
2022-10-29T01:55:30.702Z,32.53
2022-10-29T01:58:34.771Z,32.30
2022-10-29T02:01:47.423Z,32.10
2022-10-29T02:05:01.688Z,28.83
2022-10-29T02:08:21.336Z,34.47
2022-10-29T02:11:39.501Z,29.85
2022-10-29T02:14:48.299Z,29.73
2022-10-29T02:17:51.179Z,31.42
2022-10-29T02:20:53.758Z,28.33
2022-10-29T02:23:56.490Z,34.40
2022-10-29T02:26:58.957Z,34.42
2022-10-29T02:30:01.793Z,34.40
2022-10-29T02:33:04.312Z,40.40
2022-10-29T02:36:07.595Z,34.35
2022-10-29T02:39:10.671Z,35.30
2022-10-29T02:42:13.371Z,37.13
2022-10-29T02:45:15.906Z,39.83
2022-10-29T02:48:18.672Z,39.70
2022-10-29T02:51:21.142Z,42.80
2022-10-29T02:54:23.941Z,40.17
2022-10-29T02:57:26.388Z,44.47
2022-10-29T03:00:29.226Z,39.95
2022-10-29T03:03:31.684Z,43.05
2022-10-29T03:06:34.414Z,43.55
2022-10-29T03:09:37.029Z,50.20
2022-10-29T03:12:39.756Z,45.22
2022-10-29T03:15:44.715Z,40.10
2022-10-29T03:18:47.639Z,46.95
2022-10-29T03:21:50.069Z,46.33
2022-10-29T03:24:52.773Z,44.53
2022-10-29T03:27:55.624Z,46.47
2022-10-29T03:30:58.821Z,46.30
2022-10-29T03:34:01.305Z,44.58
2022-10-29T03:37:04.059Z,39.70
2022-10-29T03:40:07.543Z,45.47
2022-10-29T03:43:10.284Z,40.28
2022-10-29T03:46:12.760Z,36.28
2022-10-29T03:49:15.458Z,40.20
2022-10-29T03:52:17.909Z,41.33
2022-10-29T03:55:20.646Z,36.03
2022-10-29T03:58:23.635Z,41.67
2022-10-29T04:01:26.418Z,40.33
2022-10-29T04:04:29.214Z,41.25
2022-10-29T04:07:31.679Z,40.08
2022-10-29T04:10:34.477Z,49.93
2022-10-29T04:13:37.161Z,45.83
2022-10-29T04:16:39.868Z,40.33
2022-10-29T04:19:42.355Z,41.35
2022-10-29T04:29:30.238Z,43.53
2022-10-29T04:32:32.727Z,39.65
2022-10-29T04:35:35.472Z,38.00
2022-10-29T04:38:38.127Z,42.83
2022-10-29T04:41:40.899Z,35.87
2022-10-29T04:44:43.345Z,36.83
2022-10-29T04:47:46.288Z,38.75
2022-10-29T04:50:49.127Z,33.08
2022-10-29T04:53:51.867Z,37.30
2022-10-29T04:56:54.410Z,34.90
2022-10-29T04:59:57.113Z,35.03
2022-10-29T05:02:59.957Z,38.38
2022-10-29T05:06:04.867Z,40.75
2022-10-29T05:09:07.350Z,40.50
2022-10-29T05:12:10.116Z,45.03
2022-10-29T05:15:12.608Z,55.85
2022-10-29T05:18:15.498Z,36.70
2022-10-29T05:21:17.948Z,38.15
2022-10-29T05:24:20.718Z,45.08
2022-10-29T05:27:23.195Z,39.87
2022-10-29T05:30:25.942Z,37.45
2022-10-29T05:33:28.437Z,45.28
2022-10-29T05:36:31.211Z,37.63
2022-10-29T05:39:33.652Z,34.40
2022-10-29T05:42:38.183Z,40.00
2022-10-29T05:45:41.181Z,34.53
2022-10-29T05:48:43.884Z,36.97
2022-10-29T05:51:46.367Z,35.47
2022-10-29T05:54:49.106Z,37.35
2022-10-29T05:57:58.877Z,39.37
2022-10-29T06:01:06.072Z,39.88
2022-10-29T06:04:08.941Z,36.65
2022-10-29T06:07:11.411Z,31.17
2022-10-29T06:10:14.266Z,35.17
2022-10-29T06:13:18.638Z,32.80
2022-10-29T06:16:21.468Z,33.88
2022-10-29T06:19:23.947Z,31.42
2022-10-29T06:22:26.684Z,42.47
2022-10-29T06:25:29.166Z,34.17
2022-10-29T06:28:34.799Z,34.37
2022-10-29T06:31:37.602Z,33.45
2022-10-29T06:34:40.342Z,32.17
2022-10-29T06:37:42.829Z,29.05
2022-10-29T06:40:52.717Z,31.58
2022-10-29T06:43:55.291Z,28.30
2022-10-29T06:46:58.075Z,30.12
2022-10-29T06:50:01.095Z,36.10
2022-10-29T06:53:06.045Z,31.33
2022-10-29T06:56:08.480Z,29.55
2022-10-29T06:59:11.666Z,27.47
2022-10-29T07:02:14.127Z,31.98
2022-10-29T07:05:16.871Z,29.98
2022-10-29T07:08:19.408Z,37.20
2022-10-29T07:11:22.216Z,36.05
2022-10-29T07:14:24.711Z,33.40
2022-10-29T07:17:27.491Z,27.70
2022-10-29T07:20:36.087Z,31.35
2022-10-29T07:23:38.821Z,30.35
2022-10-29T07:26:41.321Z,28.77
2022-10-29T07:29:44.508Z,28.60
2022-10-29T07:32:46.973Z,30.95
2022-10-29T07:35:49.723Z,29.52
2022-10-29T07:38:52.339Z,25.27
2022-10-29T07:41:58.239Z,27.20
2022-10-29T07:45:01.896Z,31.00
2022-10-29T07:48:09.701Z,24.02
2022-10-29T07:51:12.150Z,30.55
2022-10-29T07:54:15.015Z,28.48
2022-10-29T07:57:17.579Z,24.02
2022-10-29T08:00:20.349Z,27.77
2022-10-29T08:03:23.098Z,28.52
2022-10-29T08:06:25.505Z,29.02
2022-10-29T08:09:28.740Z,36.35
2022-10-29T08:12:31.203Z,35.55
2022-10-29T08:15:35.013Z,33.90
2022-10-29T08:18:37.590Z,31.15
2022-10-29T08:21:40.434Z,26.77
2022-10-29T08:24:42.871Z,23.08
2022-10-29T08:27:45.687Z,31.40
2022-10-29T08:30:51.441Z,34.93
2022-10-29T08:33:54.136Z,24.75
2022-10-29T08:36:56.574Z,23.73
2022-10-29T08:39:59.284Z,26.05
2022-10-29T08:43:46.140Z,24.65
2022-10-29T08:46:55.240Z,27.17
2022-10-29T08:50:23.924Z,34.90
2022-10-29T08:53:34.120Z,28.00
2022-10-29T08:56:38.695Z,27.30
2022-10-29T09:00:02.484Z,35.08
2022-10-29T09:03:11.346Z,19.23
2022-10-29T09:06:19.752Z,19.85
2022-10-29T09:09:35.111Z,19.98
2022-10-29T09:12:53.293Z,21.17
2022-10-29T09:16:07.567Z,17.27
2022-10-29T09:19:29.548Z,19.47
2022-10-29T09:22:51.225Z,17.33
2022-10-29T09:26:01.611Z,17.80
2022-10-29T09:29:07.031Z,17.42
2022-10-29T09:32:13.938Z,18.60
2022-10-29T09:35:19.173Z,15.60
2022-10-29T09:38:32.847Z,16.73
2022-10-29T09:41:35.572Z,18.83
2022-10-29T09:44:47.525Z,28.05
2022-10-29T09:48:01.735Z,23.38
2022-10-29T09:51:23.099Z,21.27
2022-10-29T09:54:27.286Z,21.12
2022-10-29T09:57:31.988Z,19.95
2022-10-29T10:00:35.236Z,21.45
2022-10-29T10:03:46.938Z,22.77
2022-10-29T10:07:20.729Z,25.23
2022-10-29T10:10:24.085Z,20.23
2022-10-29T10:13:31.637Z,22.77
2022-10-29T10:16:34.416Z,22.27
2022-10-29T10:19:44.286Z,21.80
2022-10-29T10:22:47.513Z,22.37
2022-10-29T10:25:51.141Z,19.55
2022-10-29T10:29:05.737Z,19.83
2022-10-29T10:32:08.983Z,21.92
2022-10-29T10:35:28.080Z,21.27
2022-10-29T10:38:41.291Z,23.43
2022-10-29T10:41:44.265Z,22.15
2022-10-29T10:44:59.186Z,26.08
2022-10-29T10:48:02.410Z,22.70
2022-10-29T10:51:19.339Z,24.05
2022-10-29T10:54:42.408Z,20.83
2022-10-29T10:57:54.125Z,21.83
2022-10-29T11:01:06.642Z,23.33
2022-10-29T11:04:12.084Z,21.83
2022-10-29T11:07:15.540Z,20.85
2022-10-29T11:10:19.452Z,19.07
2022-10-29T11:13:24.086Z,21.05
2022-10-29T11:16:34.359Z,19.62
2022-10-29T11:19:43.184Z,23.38
2022-10-29T11:22:47.767Z,22.80
2022-10-29T11:25:56.498Z,28.40
2022-10-29T11:29:14.586Z,27.33
2022-10-29T11:32:51.214Z,22.08
2022-10-29T11:36:04.382Z,21.87
2022-10-29T11:39:26.924Z,21.92
2022-10-29T11:42:29.791Z,26.73
2022-10-29T11:46:21.963Z,24.15
2022-10-29T11:49:39.349Z,26.33
2022-10-29T11:53:00.714Z,22.17
2022-10-29T11:56:29.393Z,23.12
2022-10-29T11:59:53.573Z,24.60
2022-10-29T12:03:17.418Z,26.50
2022-10-29T12:06:41.957Z,24.87
2022-10-29T12:10:03.155Z,23.08
2022-10-29T12:13:33.254Z,23.48
2022-10-29T12:17:05.865Z,24.23
2022-10-29T12:20:22.192Z,22.60
2022-10-29T12:23:49.376Z,21.37
2022-10-29T12:27:26.110Z,21.17
2022-10-29T12:30:32.013Z,21.73
2022-10-29T12:33:57.311Z,20.67
2022-10-29T12:37:15.465Z,18.73
2022-10-29T12:40:23.343Z,20.05
2022-10-29T12:43:27.810Z,19.23
2022-10-29T12:46:43.807Z,21.83
2022-10-29T12:50:13.636Z,24.43
2022-10-29T12:53:35.052Z,22.65
2022-10-29T12:56:37.936Z,23.67
2022-10-29T12:59:44.715Z,26.73
2022-10-29T13:02:47.462Z,23.60
2022-10-29T13:05:50.382Z,26.70
2022-10-29T13:08:57.286Z,25.65
2022-10-29T13:12:11.430Z,26.33
2022-10-29T13:15:15.615Z,25.98
2022-10-29T13:18:24.631Z,27.92
2022-10-29T13:22:04.719Z,24.00
2022-10-29T13:25:38.397Z,24.48
2022-10-29T13:28:40.817Z,25.35
2022-10-29T13:31:45.972Z,25.60
2022-10-29T13:34:56.997Z,27.33
2022-10-29T13:38:08.779Z,27.73
2022-10-29T13:41:14.837Z,26.17
2022-10-29T13:44:22.360Z,29.42
2022-10-29T13:47:25.508Z,29.67
2022-10-29T13:50:29.815Z,28.48
2022-10-29T13:53:39.941Z,33.47
2022-10-29T13:56:49.344Z,30.10
2022-10-29T13:59:58.318Z,27.50
2022-10-29T14:03:38.719Z,30.90
2022-10-29T14:06:41.592Z,29.17
2022-10-29T14:09:47.560Z,28.70
2022-10-29T14:12:55.865Z,34.63
2022-10-29T14:16:07.457Z,25.67
2022-10-29T14:19:14.980Z,30.83
2022-10-29T14:22:39.225Z,29.42
2022-10-29T14:25:41.964Z,29.13
2022-10-29T14:28:44.714Z,30.80
2022-10-29T14:31:48.885Z,30.25
2022-10-29T14:34:51.895Z,32.40
2022-10-29T14:37:57.037Z,33.05
2022-10-29T14:40:59.966Z,36.90
2022-10-29T14:44:04.215Z,41.10
2022-10-29T14:47:06.573Z,37.53
2022-10-29T14:50:18.764Z,29.92
2022-10-29T14:53:29.715Z,33.88
2022-10-29T14:56:38.669Z,27.40
2022-10-29T14:59:48.180Z,31.65
2022-10-29T15:02:51.481Z,29.85
2022-10-29T15:06:17.527Z,29.60
2022-10-29T15:09:28.061Z,32.97
2022-10-29T15:12:35.763Z,36.07
2022-10-29T15:15:38.560Z,27.40
2022-10-29T15:18:41.128Z,31.30
2022-10-29T15:21:44.097Z,31.45
2022-10-29T15:24:48.437Z,32.90
2022-10-29T15:27:51.906Z,28.93
2022-10-29T15:30:54.552Z,28.40
2022-10-29T15:33:59.368Z,26.45
2022-10-29T15:37:20.205Z,30.48
2022-10-29T15:40:24.987Z,34.03
2022-10-29T15:43:29.867Z,31.53
2022-10-29T15:46:44.500Z,34.83
2022-10-29T15:49:47.508Z,34.33
2022-10-29T15:52:56.101Z,32.42
2022-10-29T15:55:58.618Z,28.58
2022-10-29T15:59:01.468Z,37.57
2022-10-29T16:02:13.186Z,39.13
2022-10-29T16:05:16.572Z,40.25
2022-10-29T16:08:28.991Z,40.58
2022-10-29T16:11:34.152Z,40.10
2022-10-29T16:14:36.621Z,44.73
2022-10-29T16:17:39.407Z,40.88
2022-10-29T16:20:42.176Z,40.88
2022-10-29T16:23:45.392Z,44.50
2022-10-29T16:26:47.844Z,40.15
2022-10-29T16:29:51.765Z,37.30
2022-10-29T16:32:54.876Z,38.58
2022-10-29T16:35:58.072Z,38.22
2022-10-29T16:39:00.757Z,47.15
2022-10-29T16:42:03.854Z,44.15
2022-10-29T16:45:10.113Z,40.03
2022-10-29T16:48:12.886Z,37.03
2022-10-29T16:51:15.555Z,39.72
2022-10-29T16:54:18.338Z,45.95
2022-10-29T16:57:20.919Z,43.33
2022-10-29T17:00:31.559Z,44.47
2022-10-29T17:03:34.394Z,46.33
2022-10-29T17:06:37.178Z,45.60
2022-10-29T17:09:40.166Z,44.83
2022-10-29T17:12:43.101Z,48.13
2022-10-29T17:15:45.586Z,53.87
2022-10-29T17:18:50.827Z,50.25
2022-10-29T17:21:53.655Z,57.00
2022-10-29T17:24:58.772Z,49.05
2022-10-29T17:28:02.350Z,48.17
2022-10-29T17:31:09.613Z,55.03
2022-10-29T17:34:12.076Z,47.75
2022-10-29T17:37:16.089Z,52.47
2022-10-29T17:40:18.610Z,56.35
2022-10-29T17:43:21.598Z,61.20
2022-10-29T17:46:24.126Z,47.13
2022-10-29T17:49:27.243Z,56.25
2022-10-29T17:52:29.654Z,50.15
2022-10-29T17:55:32.361Z,55.17
2022-10-29T17:58:35.007Z,57.85
2022-10-29T18:01:38.084Z,45.77
2022-10-29T18:04:41.706Z,55.55
2022-10-29T18:07:44.390Z,47.35
2022-10-29T18:10:47.439Z,58.70
2022-10-29T18:13:50.805Z,56.97
2022-10-29T18:16:53.573Z,53.53
2022-10-29T18:19:56.351Z,52.03
2022-10-29T18:22:59.445Z,47.00
2022-10-29T18:26:05.214Z,53.55
2022-10-29T18:29:10.451Z,61.37
2022-10-29T18:32:12.965Z,58.93
2022-10-29T18:35:16.052Z,52.62
2022-10-29T18:38:18.590Z,53.70
2022-10-29T18:41:22.691Z,57.47
2022-10-29T18:44:26.346Z,56.55
2022-10-29T18:47:29.304Z,85.23
2022-10-29T18:50:31.871Z,59.33
2022-10-29T18:53:36.110Z,60.63
2022-10-29T18:56:39.331Z,56.97
2022-10-29T18:59:42.307Z,67.20
2022-10-29T19:02:45.362Z,64.77
2022-10-29T19:05:48.209Z,61.70
2022-10-29T19:08:50.951Z,54.17
2022-10-29T19:11:56.737Z,63.33
2022-10-29T19:15:02.394Z,50.30
2022-10-29T19:18:06.257Z,57.90
2022-10-29T19:21:13.720Z,55.85
2022-10-29T19:24:17.141Z,57.22
2022-10-29T19:27:19.948Z,48.60
2022-10-29T19:30:22.687Z,41.05
2022-10-29T19:33:25.148Z,38.43
2022-10-29T19:36:29.154Z,43.75
2022-10-29T19:39:31.945Z,43.13
2022-10-29T19:42:35.803Z,43.58
2022-10-29T19:45:40.121Z,41.22
2022-10-29T19:48:43.248Z,40.13
2022-10-29T19:51:46.413Z,41.40
2022-10-29T19:54:49.213Z,42.22
2022-10-29T19:57:51.804Z,42.83
2022-10-29T20:00:55.181Z,44.97
2022-10-29T20:03:58.407Z,43.83
2022-10-29T20:07:01.105Z,46.80
2022-10-29T20:10:04.972Z,41.95
2022-10-29T20:13:07.735Z,42.95
2022-10-29T20:16:21.282Z,43.30
2022-10-29T20:19:24.224Z,43.27
2022-10-29T20:22:26.961Z,42.50
2022-10-29T20:25:29.484Z,38.85
2022-10-29T20:28:33.040Z,41.05
2022-10-29T20:31:40.097Z,43.83
2022-10-29T20:34:43.882Z,41.30
2022-10-29T20:37:46.548Z,38.75
2022-10-29T20:40:50.791Z,43.50
2022-10-29T20:43:54.984Z,39.63
2022-10-29T20:46:57.828Z,42.13
2022-10-29T20:50:00.854Z,37.93
2022-10-29T20:53:03.738Z,40.95
2022-10-29T20:56:08.199Z,39.20
2022-10-29T20:59:13.382Z,37.28
2022-10-29T21:02:15.950Z,36.22
2022-10-29T21:05:18.791Z,32.43
2022-10-29T21:08:21.387Z,46.30
2022-10-29T21:11:24.240Z,40.00
2022-10-29T21:14:27.593Z,42.08
2022-10-29T21:17:30.379Z,43.47
2022-10-29T21:20:32.839Z,38.83
2022-10-29T21:23:39.222Z,43.83
2022-10-29T21:26:41.650Z,44.08
2022-10-29T21:29:44.712Z,40.85
2022-10-29T21:32:47.219Z,44.92
2022-10-29T21:35:51.500Z,42.97
2022-10-29T21:38:54.028Z,38.85
2022-10-29T21:41:57.144Z,36.20
2022-10-29T21:44:59.687Z,40.83
2022-10-29T21:48:02.617Z,36.53
2022-10-29T21:51:07.153Z,35.23
2022-10-29T21:54:09.861Z,37.20
2022-10-29T21:57:12.331Z,37.58
2022-10-29T22:00:16.041Z,39.20
2022-10-29T22:03:18.802Z,40.63
2022-10-29T22:06:23.005Z,44.43
2022-10-29T22:09:26.158Z,41.10
2022-10-29T22:12:31.119Z,45.28
2022-10-29T22:15:34.646Z,43.87
2022-10-29T22:18:37.703Z,38.65
2022-10-29T22:21:40.897Z,40.87
2022-10-29T22:24:43.306Z,38.17
2022-10-29T22:27:46.037Z,39.13
2022-10-29T22:30:48.466Z,42.75
2022-10-29T22:33:51.450Z,38.45
2022-10-29T22:36:54.122Z,43.10
2022-10-29T22:39:57.182Z,39.78
2022-10-29T22:43:00.034Z,44.88
2022-10-29T22:46:04.544Z,42.58
2022-10-29T22:49:07.585Z,43.25
2022-10-29T22:52:10.309Z,44.93
2022-10-29T22:55:12.774Z,37.42
2022-10-29T22:58:15.614Z,40.75
2022-10-29T23:01:26.114Z,41.95
2022-10-29T23:04:28.931Z,44.03
2022-10-29T23:10:35.930Z,37.92
2022-10-29T23:13:38.424Z,38.65
2022-10-29T23:16:41.190Z,44.22
2022-10-29T23:19:43.697Z,37.92
2022-10-29T23:22:46.407Z,37.50
2022-10-29T23:25:48.820Z,38.03
2022-10-29T23:28:51.786Z,36.08
2022-10-29T23:31:54.275Z,38.00
2022-10-29T23:34:56.977Z,35.63
2022-10-29T23:37:59.786Z,36.60
2022-10-29T23:41:03.249Z,42.05
2022-10-29T23:44:05.711Z,35.90
2022-10-29T23:47:08.478Z,39.75
2022-10-29T23:50:11.090Z,41.30
2022-10-29T23:53:14.145Z,36.10
2022-10-29T23:56:16.588Z,37.97
2022-10-29T23:59:19.350Z,41.97
